createdAt,value
2023-02-02T00:01:54.895Z,5.90
2023-02-02T00:04:26.015Z,5.90
2023-02-02T00:06:57.187Z,5.90
2023-02-02T00:09:29.087Z,5.90
2023-02-02T00:12:00.991Z,5.90
2023-02-02T00:14:29.541Z,5.90
2023-02-02T00:16:59.076Z,5.90
2023-02-02T00:19:30.286Z,5.90
2023-02-02T00:21:59.527Z,5.90
2023-02-02T00:24:28.333Z,5.80
2023-02-02T00:27:00.708Z,5.70
2023-02-02T00:29:32.451Z,5.70
2023-02-02T00:32:01.009Z,5.70
2023-02-02T00:34:29.436Z,5.70
2023-02-02T00:36:57.903Z,5.70
2023-02-02T00:39:27.534Z,5.70
2023-02-02T00:41:56.247Z,5.70
2023-02-02T00:44:43.887Z,5.70
2023-02-02T00:47:12.474Z,5.70
2023-02-02T00:49:40.952Z,5.60
2023-02-02T00:52:09.450Z,5.60
2023-02-02T00:54:37.862Z,5.50
2023-02-02T00:57:06.455Z,5.40
2023-02-02T00:59:36.233Z,5.30
2023-02-02T01:02:04.659Z,5.30
2023-02-02T01:04:33.145Z,5.30
2023-02-02T01:07:01.639Z,5.30
2023-02-02T01:09:30.327Z,5.20
2023-02-02T01:11:59.356Z,5.20
2023-02-02T01:14:28.419Z,5.20
2023-02-02T01:16:58.639Z,5.30
2023-02-02T01:19:30.124Z,5.20
2023-02-02T01:21:58.766Z,5.20
2023-02-02T01:24:27.447Z,5.20
2023-02-02T01:26:55.969Z,5.10
2023-02-02T01:29:24.621Z,5.20
2023-02-02T01:31:53.250Z,5.20
2023-02-02T01:34:23.389Z,5.10
2023-02-02T01:36:51.880Z,5.10
2023-02-02T01:39:20.585Z,5.10
2023-02-02T01:41:49.401Z,5.00
2023-02-02T01:45:21.148Z,5.00
2023-02-02T01:47:54.073Z,5.00
2023-02-02T01:50:29.838Z,4.90
2023-02-02T01:53:03.399Z,4.90
2023-02-02T01:55:35.892Z,4.90
2023-02-02T01:58:08.840Z,5.00
2023-02-02T02:00:38.021Z,5.10
2023-02-02T02:03:12.520Z,5.10
2023-02-02T02:05:48.105Z,5.20
2023-02-02T02:08:20.716Z,5.30
2023-02-02T02:10:49.303Z,5.30
2023-02-02T02:13:19.409Z,5.30
2023-02-02T02:16:17.476Z,5.40
2023-02-02T02:18:59.144Z,5.40
2023-02-02T02:22:12.190Z,5.40
2023-02-02T02:25:40.105Z,5.40
2023-02-02T02:28:59.465Z,5.40
2023-02-02T02:32:01.342Z,5.40
2023-02-02T02:34:49.188Z,5.40
2023-02-02T02:37:30.837Z,5.40
2023-02-02T02:40:11.275Z,5.40
2023-02-02T02:42:46.681Z,5.40
2023-02-02T02:45:16.144Z,5.40
2023-02-02T02:47:46.370Z,5.30
2023-02-02T02:50:14.930Z,5.30
2023-02-02T02:52:43.793Z,5.30
2023-02-02T02:55:13.863Z,5.40
2023-02-02T02:58:08.541Z,5.40
2023-02-02T03:01:03.823Z,5.40
2023-02-02T05:19:49.656Z,5.00
2023-02-02T05:22:18.573Z,5.00
2023-02-02T05:24:47.316Z,4.90
2023-02-02T05:27:15.876Z,4.90
2023-02-02T05:29:44.215Z,5.00
2023-02-02T05:32:12.565Z,5.10
2023-02-02T05:34:40.955Z,5.10
2023-02-02T05:37:10.762Z,5.10
2023-02-02T05:39:39.148Z,5.10
2023-02-02T05:42:07.644Z,5.10
2023-02-02T05:44:35.983Z,5.20
2023-02-02T05:47:04.313Z,5.20
2023-02-02T05:49:32.738Z,5.20
2023-02-02T05:52:01.620Z,5.20
2023-02-02T05:54:31.286Z,5.20
2023-02-02T05:57:01.313Z,5.20
2023-02-02T05:59:29.600Z,5.20
2023-02-02T06:01:57.965Z,5.20
2023-02-02T06:04:26.269Z,5.20
2023-02-02T06:06:54.677Z,5.20
2023-02-02T06:09:23.816Z,5.20
2023-02-02T06:11:53.509Z,5.10
2023-02-02T06:14:22.862Z,5.10
2023-02-02T06:16:51.421Z,5.20
2023-02-02T06:19:21.020Z,5.20
2023-02-02T06:21:49.453Z,5.20
2023-02-02T06:24:18.464Z,5.10
2023-02-02T06:26:48.518Z,5.10
2023-02-02T06:29:19.451Z,5.00
2023-02-02T06:31:48.074Z,5.00
2023-02-02T06:34:17.600Z,5.00
2023-02-02T06:36:45.932Z,5.00
2023-02-02T06:39:14.248Z,5.00
2023-02-02T06:41:44.828Z,5.10
2023-02-02T06:44:17.211Z,5.10
2023-02-02T06:46:46.898Z,5.20
2023-02-02T06:49:15.297Z,5.20
2023-02-02T06:51:43.669Z,5.20
2023-02-02T06:54:12.113Z,5.20
2023-02-02T06:56:40.552Z,5.20
2023-02-02T06:59:09.284Z,5.20
2023-02-02T07:01:37.880Z,5.10
2023-02-02T07:04:07.614Z,5.10
2023-02-02T07:06:36.010Z,5.00
2023-02-02T07:09:04.409Z,4.90
2023-02-02T07:11:37.365Z,4.90
2023-02-02T07:14:11.219Z,4.80
2023-02-02T07:16:39.592Z,4.80
2023-02-02T07:19:09.703Z,4.80
2023-02-02T07:21:38.009Z,4.80
2023-02-02T07:24:08.339Z,4.80
2023-02-02T07:26:37.210Z,4.80
2023-02-02T07:29:06.719Z,4.90
2023-02-02T07:31:36.814Z,5.00
2023-02-02T07:34:05.817Z,5.00
2023-02-02T07:36:35.671Z,5.20
2023-02-02T07:39:07.820Z,5.20
2023-02-02T07:41:37.788Z,5.20
2023-02-02T07:44:07.339Z,5.20
2023-02-02T07:46:35.766Z,5.20
2023-02-02T07:49:06.145Z,5.30
2023-02-02T07:51:38.038Z,5.30
2023-02-02T07:54:07.982Z,5.30
2023-02-02T07:56:36.672Z,5.20
2023-02-02T07:59:05.782Z,5.20
2023-02-02T08:01:34.458Z,5.20
2023-02-02T08:04:03.501Z,5.20
2023-02-02T08:06:35.865Z,5.20
2023-02-02T08:09:08.783Z,5.20
2023-02-02T08:11:41.794Z,5.20
2023-02-02T08:14:13.936Z,5.20
2023-02-02T08:16:42.235Z,5.20
2023-02-02T08:19:11.960Z,5.20
2023-02-02T08:21:41.663Z,5.30
2023-02-02T08:24:10.221Z,5.30
2023-02-02T08:26:38.666Z,5.30
2023-02-02T08:29:09.335Z,5.40
2023-02-02T08:31:41.919Z,5.40
2023-02-02T08:34:11.825Z,5.50
2023-02-02T08:36:42.211Z,5.60
2023-02-02T08:39:14.489Z,5.70
2023-02-02T08:41:42.984Z,5.90
2023-02-02T08:44:15.629Z,6.00
2023-02-02T08:46:43.882Z,6.00
2023-02-02T08:49:13.859Z,5.90
2023-02-02T08:51:43.773Z,5.90
2023-02-02T08:54:12.239Z,5.90
2023-02-02T08:56:40.571Z,5.80
2023-02-02T08:59:09.080Z,5.80
2023-02-02T09:01:37.558Z,6.00
2023-02-02T09:04:10.299Z,6.20
2023-02-02T09:06:43.878Z,6.20
2023-02-02T09:09:16.269Z,6.00
2023-02-02T09:11:46.145Z,6.00
2023-02-02T09:14:15.882Z,5.90
2023-02-02T09:16:44.459Z,5.80
2023-02-02T09:19:13.507Z,5.80
2023-02-02T09:21:43.496Z,5.50
2023-02-02T09:24:15.153Z,5.60
2023-02-02T09:26:45.508Z,5.60
2023-02-02T09:29:19.331Z,5.70
2023-02-02T09:31:48.203Z,6.00
2023-02-02T09:34:18.542Z,6.30
2023-02-02T09:36:48.559Z,6.30
2023-02-02T09:39:18.562Z,6.00
2023-02-02T09:42:33.257Z,5.90
2023-02-02T09:45:09.622Z,5.90
2023-02-02T09:47:55.683Z,6.30
2023-02-02T09:50:49.509Z,7.00
2023-02-02T09:53:28.931Z,7.20
2023-02-02T09:56:01.625Z,7.10
2023-02-02T09:58:35.921Z,7.10
2023-02-02T10:01:10.995Z,7.30
2023-02-02T10:03:49.216Z,7.60
2023-02-02T10:06:33.921Z,7.80
2023-02-02T10:09:22.720Z,7.60
2023-02-02T10:11:59.407Z,8.00
2023-02-02T10:14:34.687Z,8.10
2023-02-02T10:17:27.431Z,7.70
2023-02-02T10:20:05.057Z,7.50
2023-02-02T10:22:35.828Z,7.30
2023-02-02T10:25:06.483Z,7.40
2023-02-02T10:27:40.268Z,7.40
2023-02-02T10:30:22.852Z,7.20
2023-02-02T10:33:07.037Z,7.10
2023-02-02T10:35:48.288Z,7.80
2023-02-02T10:38:28.345Z,8.50
2023-02-02T10:41:13.655Z,8.90
2023-02-02T10:44:07.451Z,8.70
2023-02-02T10:46:42.917Z,8.10
2023-02-02T10:49:27.194Z,8.00
2023-02-02T10:52:05.611Z,7.60
2023-02-02T10:54:57.248Z,7.10
2023-02-02T10:57:50.375Z,6.80
2023-02-02T11:00:26.919Z,6.90
2023-02-02T11:02:56.182Z,7.10
2023-02-02T11:05:48.140Z,7.10
2023-02-02T11:08:21.103Z,7.40
2023-02-02T11:10:55.751Z,7.80
2023-02-02T11:13:33.520Z,7.90
2023-02-02T11:16:42.227Z,7.50
2023-02-02T11:19:30.460Z,7.40
2023-02-02T11:22:02.147Z,6.90
2023-02-02T11:24:36.579Z,6.70
2023-02-02T11:27:13.901Z,6.60
2023-02-02T11:29:48.317Z,6.50
2023-02-02T11:32:27.473Z,6.60
2023-02-02T11:35:23.352Z,6.40
2023-02-02T11:38:10.742Z,6.30
2023-02-02T11:40:43.253Z,6.30
2023-02-02T11:43:19.701Z,6.20
2023-02-02T11:45:57.173Z,6.30
2023-02-02T11:48:33.617Z,6.40
2023-02-02T11:51:03.277Z,6.70
2023-02-02T11:53:34.620Z,7.20
2023-02-02T11:56:08.726Z,7.30
2023-02-02T11:58:47.435Z,7.30
2023-02-02T12:01:28.386Z,7.20
2023-02-02T12:03:59.272Z,7.20
2023-02-02T12:06:36.142Z,7.30
2023-02-02T12:09:14.161Z,7.30
2023-02-02T12:11:58.700Z,7.30
2023-02-02T12:14:35.526Z,7.40
2023-02-02T12:17:16.390Z,7.50
2023-02-02T12:20:13.090Z,7.40
2023-02-02T12:23:05.329Z,7.50
2023-02-02T12:26:15.137Z,7.70
2023-02-02T12:29:09.084Z,7.60
2023-02-02T12:31:56.952Z,7.10
2023-02-02T12:34:43.434Z,6.80
2023-02-02T12:37:26.775Z,6.70
2023-02-02T12:40:21.280Z,6.70
2023-02-02T12:43:12.033Z,6.60
2023-02-02T12:46:12.014Z,6.70
2023-02-02T12:49:08.794Z,6.80
2023-02-02T12:51:54.569Z,6.80
2023-02-02T12:54:57.264Z,6.80
2023-02-02T12:57:45.436Z,6.60
2023-02-02T13:00:42.723Z,6.30
2023-02-02T13:03:32.989Z,6.20
2023-02-02T13:06:34.487Z,6.10
2023-02-02T13:09:13.470Z,6.00
2023-02-02T13:11:50.006Z,5.90
2023-02-02T13:14:27.586Z,5.80
2023-02-02T13:17:03.843Z,5.70
2023-02-02T13:19:42.149Z,5.60
2023-02-02T13:22:19.997Z,5.60
2023-02-02T13:24:56.377Z,5.50
2023-02-02T13:27:26.593Z,5.40
2023-02-02T13:30:03.332Z,5.40
2023-02-02T13:32:37.468Z,5.30
2023-02-02T13:35:18.355Z,5.30
2023-02-02T13:37:55.598Z,5.40
2023-02-02T13:40:35.365Z,5.40
2023-02-02T13:43:29.890Z,5.50
2023-02-02T13:46:13.970Z,5.80
2023-02-02T13:48:58.801Z,5.90
2023-02-02T13:51:55.102Z,6.00
2023-02-02T13:55:19.750Z,5.90
2023-02-02T13:58:36.383Z,5.70
2023-02-02T14:01:10.262Z,5.40
2023-02-02T14:03:41.539Z,5.20
2023-02-02T14:06:17.355Z,5.00
2023-02-02T14:08:54.854Z,4.80
2023-02-02T14:11:30.422Z,4.70
2023-02-02T14:14:27.548Z,4.60
2023-02-02T14:16:56.926Z,4.60
2023-02-02T14:19:53.205Z,4.50
2023-02-02T14:22:43.398Z,4.50
2023-02-02T14:25:53.505Z,4.50
2023-02-02T14:28:48.598Z,4.50
2023-02-02T14:31:54.459Z,4.50
2023-02-02T14:34:35.039Z,4.60
2023-02-02T14:37:35.795Z,4.60
2023-02-02T14:40:30.996Z,4.60
2023-02-02T14:43:37.475Z,4.70
2023-02-02T14:46:40.339Z,4.70
2023-02-02T14:49:26.034Z,4.80
2023-02-02T14:52:05.564Z,4.80
2023-02-02T14:54:40.282Z,4.80
2023-02-02T14:57:28.044Z,4.80
2023-02-02T15:00:01.355Z,4.80
2023-02-02T15:02:36.401Z,4.70
2023-02-02T15:05:46.451Z,4.50
2023-02-02T15:08:26.124Z,4.50
2023-02-02T15:11:26.281Z,4.50
2023-02-02T15:14:24.440Z,4.40
2023-02-02T15:16:53.920Z,4.20
2023-02-02T15:19:35.716Z,4.00
2023-02-02T15:22:27.576Z,3.80
2023-02-02T15:24:59.344Z,3.60
2023-02-02T15:27:29.546Z,3.40
2023-02-02T15:30:05.386Z,3.20
2023-02-02T15:32:35.507Z,3.10
2023-02-02T15:35:13.759Z,2.90
2023-02-02T15:37:49.135Z,2.80
2023-02-02T15:40:25.177Z,2.70
2023-02-02T15:43:00.368Z,2.50
2023-02-02T15:45:48.589Z,2.40
2023-02-02T15:48:30.059Z,2.20
2023-02-02T15:51:04.107Z,2.10
2023-02-02T15:53:49.837Z,2.00
2023-02-02T15:56:30.609Z,1.90
2023-02-02T15:59:01.786Z,1.80
2023-02-02T16:01:45.219Z,1.70
2023-02-02T16:04:22.684Z,1.70
2023-02-02T16:06:51.772Z,1.50
2023-02-02T16:09:28.098Z,1.30
2023-02-02T16:11:57.021Z,1.20
2023-02-02T16:14:26.129Z,1.00
2023-02-02T16:16:54.580Z,0.80
2023-02-02T16:19:26.160Z,0.70
2023-02-02T16:21:59.681Z,0.60
2023-02-02T16:24:35.253Z,0.50
2023-02-02T16:27:08.286Z,0.40
2023-02-02T16:29:37.248Z,0.30
2023-02-02T16:32:06.872Z,0.20
2023-02-02T16:34:50.110Z,0.10
2023-02-02T16:37:27.332Z,0.20
2023-02-02T16:39:58.853Z,0.30
2023-02-02T16:42:31.794Z,0.40
2023-02-02T16:45:01.815Z,0.40
2023-02-02T16:47:39.871Z,0.30
2023-02-02T16:50:32.120Z,0.20
2023-02-02T16:53:05.037Z,0.10
2023-02-02T16:55:49.813Z,0.00
2023-02-02T16:58:24.518Z,-0.10
2023-02-02T17:01:19.377Z,-0.20
2023-02-02T17:03:54.205Z,-0.20
2023-02-02T17:06:45.926Z,-0.30
2023-02-02T17:09:34.742Z,-0.20
2023-02-02T17:12:35.680Z,-0.20
2023-02-02T17:15:29.124Z,-0.10
2023-02-02T17:17:57.770Z,0.00
2023-02-02T17:20:27.453Z,0.00
2023-02-02T17:23:00.982Z,0.10
2023-02-02T17:25:38.238Z,0.00
2023-02-02T17:28:14.343Z,0.10
2023-02-02T17:30:44.506Z,0.00
2023-02-02T17:33:15.782Z,0.10
2023-02-02T17:35:55.752Z,0.00
2023-02-02T17:38:27.862Z,0.10
2023-02-02T17:41:01.309Z,0.00
2023-02-02T17:43:32.425Z,-0.10
2023-02-02T17:46:04.769Z,-0.30
2023-02-02T17:48:34.581Z,-0.40
2023-02-02T17:51:09.615Z,-0.40
2023-02-02T17:53:38.203Z,-0.50
2023-02-02T17:56:07.597Z,-0.60
2023-02-02T17:58:37.518Z,-0.60
2023-02-02T18:01:07.342Z,-0.70
2023-02-02T18:03:39.602Z,-0.70
2023-02-02T18:06:08.935Z,-0.70
2023-02-02T18:08:37.957Z,-0.80
2023-02-02T18:11:06.812Z,-0.90
2023-02-02T18:13:36.971Z,-0.90
2023-02-02T18:16:08.414Z,-0.80
2023-02-02T18:18:37.312Z,-0.70
2023-02-02T18:21:10.679Z,-0.70
2023-02-02T18:23:42.658Z,-0.70
2023-02-02T18:26:19.727Z,-0.80
2023-02-02T18:28:51.285Z,-0.90
2023-02-02T18:31:24.037Z,-1.10
2023-02-02T18:33:53.844Z,-1.20
2023-02-02T18:36:23.924Z,-1.10
2023-02-02T18:38:54.040Z,-1.10
2023-02-02T18:41:22.884Z,-1.20
2023-02-02T18:43:56.144Z,-1.20
2023-02-02T18:46:24.904Z,-1.20
2023-02-02T18:48:53.396Z,-1.10
2023-02-02T18:51:22.327Z,-1.10
2023-02-02T18:53:51.265Z,-1.10
2023-02-02T18:56:22.618Z,-1.00
2023-02-02T18:58:52.466Z,-1.20
2023-02-02T19:01:23.463Z,-1.30
2023-02-02T19:03:57.221Z,-1.30
2023-02-02T19:06:44.337Z,-1.30
2023-02-02T19:09:19.519Z,-1.30
2023-02-02T19:11:55.034Z,-1.30
2023-02-02T19:14:29.877Z,-1.30
2023-02-02T19:17:09.871Z,-1.20
2023-02-02T19:19:40.449Z,-1.10
2023-02-02T19:22:20.972Z,-1.10
2023-02-02T19:24:52.066Z,-1.10
2023-02-02T19:27:26.678Z,-1.00
2023-02-02T19:30:02.017Z,-0.90
2023-02-02T19:32:34.929Z,-0.80
2023-02-02T19:35:04.805Z,-0.70
2023-02-02T19:37:40.113Z,-0.70
2023-02-02T19:40:23.595Z,-0.60
2023-02-02T19:42:58.810Z,-0.70
2023-02-02T19:45:34.414Z,-0.70
2023-02-02T19:48:16.769Z,-0.70
2023-02-02T19:50:45.983Z,-0.60
2023-02-02T19:53:21.784Z,-0.50
2023-02-02T19:55:51.546Z,-0.40
2023-02-02T19:58:23.468Z,-0.30
2023-02-02T20:00:57.397Z,-0.30
2023-02-02T20:03:30.131Z,-0.30
2023-02-02T20:06:00.725Z,-0.30
2023-02-02T20:08:39.720Z,-0.30
2023-02-02T20:11:32.333Z,-0.30
2023-02-02T20:14:03.029Z,-0.20
2023-02-02T20:16:42.146Z,-0.10
2023-02-02T20:19:23.842Z,0.00
2023-02-02T20:21:54.366Z,0.00
2023-02-02T20:24:28.217Z,0.10
2023-02-02T20:27:02.668Z,0.10
2023-02-02T20:29:44.145Z,0.20
2023-02-02T20:32:23.352Z,0.40
2023-02-02T20:34:52.662Z,0.50
2023-02-02T20:37:29.238Z,0.70
2023-02-02T20:40:01.517Z,1.00
2023-02-02T20:42:31.108Z,1.10
2023-02-02T20:45:00.047Z,1.20
2023-02-02T20:47:30.378Z,1.30
2023-02-02T20:50:01.703Z,1.40
2023-02-02T20:52:31.193Z,1.40
2023-02-02T20:54:59.879Z,1.50
2023-02-02T20:57:28.334Z,1.50
2023-02-02T20:59:57.765Z,1.60
2023-02-02T21:02:28.034Z,1.70
2023-02-02T21:04:57.810Z,1.80
2023-02-02T21:07:27.082Z,1.80
2023-02-02T21:09:55.699Z,1.80
2023-02-02T21:12:25.665Z,1.80
2023-02-02T21:14:55.077Z,1.90
2023-02-02T21:17:23.457Z,1.90
2023-02-02T21:19:52.078Z,1.90
2023-02-02T21:22:25.107Z,2.00
2023-02-02T21:24:53.607Z,2.00
2023-02-02T21:27:22.007Z,2.10
2023-02-02T21:29:51.088Z,2.10
2023-02-02T21:32:19.533Z,2.10
2023-02-02T21:34:47.983Z,2.20
2023-02-02T21:37:17.989Z,2.30
2023-02-02T21:39:51.128Z,2.30
2023-02-02T21:42:23.507Z,2.30
2023-02-02T21:44:57.720Z,2.30
2023-02-02T21:47:35.048Z,2.30
2023-02-02T21:50:16.670Z,2.40
2023-02-02T21:52:45.888Z,2.40
2023-02-02T21:55:36.844Z,2.50
2023-02-02T21:58:21.923Z,2.50
2023-02-02T22:00:51.237Z,2.60
2023-02-02T22:03:35.622Z,2.60
2023-02-02T22:06:28.783Z,2.60
2023-02-02T22:09:14.265Z,2.60
2023-02-02T22:11:49.235Z,2.60
2023-02-02T22:14:23.889Z,2.60
2023-02-02T22:16:57.665Z,2.60
2023-02-02T22:19:36.350Z,2.70
2023-02-02T22:22:16.214Z,2.60
2023-02-02T22:24:47.724Z,2.70
2023-02-02T22:27:25.885Z,2.70
2023-02-02T22:30:03.949Z,2.70
2023-02-02T22:32:32.259Z,2.80
2023-02-02T22:35:00.621Z,2.80
2023-02-02T22:37:28.933Z,2.80
2023-02-02T22:39:58.585Z,2.90
2023-02-02T22:42:30.043Z,2.90
2023-02-02T22:44:58.379Z,3.00
2023-02-02T22:47:26.853Z,3.10
2023-02-02T22:49:55.351Z,3.20
2023-02-02T22:52:23.736Z,3.20
2023-02-02T22:54:52.085Z,3.30
2023-02-02T22:57:21.686Z,3.30
2023-02-02T22:59:51.347Z,3.20
2023-02-02T23:02:22.786Z,3.30
2023-02-02T23:04:51.219Z,3.30
2023-02-02T23:07:20.718Z,3.40
2023-02-02T23:10:01.519Z,3.40
2023-02-02T23:12:30.378Z,3.40
2023-02-02T23:15:00.060Z,3.40
2023-02-02T23:17:28.686Z,3.40
2023-02-02T23:19:56.986Z,3.40
2023-02-02T23:22:25.519Z,3.50
2023-02-02T23:24:53.801Z,3.60
2023-02-02T23:27:26.242Z,3.60
2023-02-02T23:29:54.883Z,3.60
2023-02-02T23:32:24.581Z,3.50
2023-02-02T23:34:52.881Z,3.50
2023-02-02T23:37:21.926Z,3.50
2023-02-02T23:39:50.508Z,3.40
2023-02-02T23:42:21.489Z,3.40
2023-02-02T23:44:50.269Z,3.40
2023-02-02T23:47:19.309Z,3.40
2023-02-02T23:49:49.275Z,3.40
2023-02-02T23:52:19.587Z,3.40
2023-02-02T23:54:48.151Z,3.30
2023-02-02T23:57:16.783Z,3.30
2023-02-02T23:59:45.120Z,3.30
